sensor_id;sensor_type;location;lat;lon;timestamp;P1;durP1;ratioP1;P2;durP2;ratioP2
7025;SDS011;3554;42.132;24.786;2022-09-27T00:02:18;11.10;;;10.20;;
7025;SDS011;3554;42.132;24.786;2022-09-27T00:04:45;11.93;;;10.90;;
7025;SDS011;3554;42.132;24.786;2022-09-27T00:07:12;11.70;;;11.00;;
7025;SDS011;3554;42.132;24.786;2022-09-27T00:09:38;11.43;;;10.60;;
7025;SDS011;3554;42.132;24.786;2022-09-27T00:12:05;11.00;;;10.10;;
7025;SDS011;3554;42.132;24.786;2022-09-27T00:14:33;12.43;;;11.37;;
7025;SDS011;3554;42.132;24.786;2022-09-27T00:17:00;10.97;;;10.13;;
7025;SDS011;3554;42.132;24.786;2022-09-27T00:19:27;17.30;;;12.40;;
7025;SDS011;3554;42.132;24.786;2022-09-27T00:21:55;12.67;;;10.50;;
7025;SDS011;3554;42.132;24.786;2022-09-27T00:24:22;10.70;;;9.93;;
7025;SDS011;3554;42.132;24.786;2022-09-27T00:26:49;11.30;;;10.50;;
7025;SDS011;3554;42.132;24.786;2022-09-27T00:29:16;11.53;;;10.60;;
7025;SDS011;3554;42.132;24.786;2022-09-27T00:31:45;11.60;;;10.60;;
7025;SDS011;3554;42.132;24.786;2022-09-27T00:34:26;12.60;;;11.37;;
7025;SDS011;3554;42.132;24.786;2022-09-27T00:36:53;11.63;;;10.70;;
7025;SDS011;3554;42.132;24.786;2022-09-27T00:39:19;12.50;;;11.40;;
7025;SDS011;3554;42.132;24.786;2022-09-27T00:41:46;12.70;;;11.57;;
7025;SDS011;3554;42.132;24.786;2022-09-27T00:47:26;13.53;;;11.30;;
7025;SDS011;3554;42.132;24.786;2022-09-27T00:49:59;13.23;;;12.07;;
7025;SDS011;3554;42.132;24.786;2022-09-27T00:52:31;12.47;;;11.67;;
7025;SDS011;3554;42.132;24.786;2022-09-27T00:55:07;11.83;;;11.00;;
7025;SDS011;3554;42.132;24.786;2022-09-27T00:57:38;11.67;;;10.80;;
7025;SDS011;3554;42.132;24.786;2022-09-27T01:00:08;10.87;;;10.17;;
7025;SDS011;3554;42.132;24.786;2022-09-27T01:02:40;11.00;;;10.27;;
7025;SDS011;3554;42.132;24.786;2022-09-27T01:05:11;10.70;;;9.97;;
7025;SDS011;3554;42.132;24.786;2022-09-27T01:07:40;12.10;;;11.30;;
7025;SDS011;3554;42.132;24.786;2022-09-27T01:10:07;11.97;;;10.70;;
7025;SDS011;3554;42.132;24.786;2022-09-27T01:12:37;10.97;;;10.30;;
7025;SDS011;3554;42.132;24.786;2022-09-27T01:15:12;11.27;;;10.57;;
7025;SDS011;3554;42.132;24.786;2022-09-27T01:17:51;10.77;;;9.93;;
7025;SDS011;3554;42.132;24.786;2022-09-27T01:23:46;10.87;;;10.03;;
7025;SDS011;3554;42.132;24.786;2022-09-27T01:26:27;12.53;;;11.37;;
7025;SDS011;3554;42.132;24.786;2022-09-27T01:29:18;11.23;;;10.33;;
7025;SDS011;3554;42.132;24.786;2022-09-27T01:31:59;11.03;;;10.33;;
7025;SDS011;3554;42.132;24.786;2022-09-27T01:34:33;11.07;;;10.50;;
7025;SDS011;3554;42.132;24.786;2022-09-27T01:37:07;11.73;;;10.93;;
7025;SDS011;3554;42.132;24.786;2022-09-27T01:39:39;11.57;;;10.87;;
7025;SDS011;3554;42.132;24.786;2022-09-27T01:42:16;12.43;;;11.57;;
7025;SDS011;3554;42.132;24.786;2022-09-27T01:44:49;11.80;;;10.90;;
7025;SDS011;3554;42.132;24.786;2022-09-27T01:47:23;14.00;;;13.00;;
7025;SDS011;3554;42.132;24.786;2022-09-27T01:49:59;13.70;;;12.60;;
7025;SDS011;3554;42.132;24.786;2022-09-27T01:52:31;12.33;;;11.43;;
7025;SDS011;3554;42.132;24.786;2022-09-27T01:55:03;13.80;;;12.73;;
7025;SDS011;3554;42.132;24.786;2022-09-27T01:57:34;12.30;;;11.40;;
7025;SDS011;3554;42.132;24.786;2022-09-27T02:00:05;11.43;;;10.60;;
7025;SDS011;3554;42.132;24.786;2022-09-27T02:02:38;10.90;;;10.20;;
7025;SDS011;3554;42.132;24.786;2022-09-27T02:05:09;11.57;;;10.77;;
7025;SDS011;3554;42.132;24.786;2022-09-27T02:07:42;11.27;;;10.43;;
7025;SDS011;3554;42.132;24.786;2022-09-27T02:10:15;11.10;;;10.30;;
7025;SDS011;3554;42.132;24.786;2022-09-27T02:12:48;10.33;;;9.80;;
7025;SDS011;3554;42.132;24.786;2022-09-27T02:15:21;10.63;;;9.83;;
7025;SDS011;3554;42.132;24.786;2022-09-27T02:17:52;10.70;;;10.00;;
7025;SDS011;3554;42.132;24.786;2022-09-27T02:20:25;10.97;;;10.17;;
7025;SDS011;3554;42.132;24.786;2022-09-27T02:22:58;10.43;;;9.60;;
7025;SDS011;3554;42.132;24.786;2022-09-27T02:25:37;11.17;;;10.37;;
7025;SDS011;3554;42.132;24.786;2022-09-27T02:28:14;11.57;;;10.47;;
7025;SDS011;3554;42.132;24.786;2022-09-27T02:31:14;11.13;;;10.43;;
7025;SDS011;3554;42.132;24.786;2022-09-27T02:33:44;11.07;;;10.37;;
7025;SDS011;3554;42.132;24.786;2022-09-27T02:36:13;10.57;;;9.93;;
7025;SDS011;3554;42.132;24.786;2022-09-27T02:38:41;10.20;;;9.30;;
7025;SDS011;3554;42.132;24.786;2022-09-27T02:41:13;11.70;;;10.37;;
7025;SDS011;3554;42.132;24.786;2022-09-27T02:43:40;13.13;;;12.17;;
7025;SDS011;3554;42.132;24.786;2022-09-27T02:46:15;14.60;;;13.10;;
7025;SDS011;3554;42.132;24.786;2022-09-27T02:49:02;13.17;;;12.23;;
7025;SDS011;3554;42.132;24.786;2022-09-27T02:51:45;13.47;;;12.33;;
7025;SDS011;3554;42.132;24.786;2022-09-27T02:54:19;15.10;;;13.63;;
7025;SDS011;3554;42.132;24.786;2022-09-27T02:56:54;16.33;;;13.33;;
7025;SDS011;3554;42.132;24.786;2022-09-27T02:59:27;14.00;;;12.80;;
7025;SDS011;3554;42.132;24.786;2022-09-27T03:02:03;16.77;;;13.77;;
7025;SDS011;3554;42.132;24.786;2022-09-27T03:04:38;14.70;;;13.27;;
7025;SDS011;3554;42.132;24.786;2022-09-27T03:07:10;14.57;;;13.30;;
7025;SDS011;3554;42.132;24.786;2022-09-27T03:09:40;15.70;;;13.27;;
7025;SDS011;3554;42.132;24.786;2022-09-27T03:12:09;15.27;;;13.93;;
7025;SDS011;3554;42.132;24.786;2022-09-27T03:14:35;13.57;;;12.67;;
7025;SDS011;3554;42.132;24.786;2022-09-27T03:17:02;13.73;;;12.63;;
7025;SDS011;3554;42.132;24.786;2022-09-27T03:19:29;14.23;;;13.07;;
7025;SDS011;3554;42.132;24.786;2022-09-27T03:21:57;14.20;;;12.80;;
7025;SDS011;3554;42.132;24.786;2022-09-27T03:24:24;13.40;;;12.00;;
7025;SDS011;3554;42.132;24.786;2022-09-27T03:26:51;12.37;;;11.50;;
7025;SDS011;3554;42.132;24.786;2022-09-27T03:29:18;12.23;;;11.33;;
7025;SDS011;3554;42.132;24.786;2022-09-27T03:31:45;12.33;;;11.63;;
7025;SDS011;3554;42.132;24.786;2022-09-27T03:34:12;12.27;;;11.23;;
7025;SDS011;3554;42.132;24.786;2022-09-27T03:36:39;12.37;;;11.50;;
7025;SDS011;3554;42.132;24.786;2022-09-27T03:39:07;12.73;;;11.83;;
7025;SDS011;3554;42.132;24.786;2022-09-27T03:41:34;11.53;;;10.83;;
7025;SDS011;3554;42.132;24.786;2022-09-27T03:44:01;12.73;;;11.53;;
7025;SDS011;3554;42.132;24.786;2022-09-27T03:46:28;11.77;;;10.50;;
7025;SDS011;3554;42.132;24.786;2022-09-27T03:48:54;10.67;;;10.00;;
7025;SDS011;3554;42.132;24.786;2022-09-27T03:51:21;10.63;;;9.70;;
7025;SDS011;3554;42.132;24.786;2022-09-27T03:53:52;11.57;;;10.40;;
7025;SDS011;3554;42.132;24.786;2022-09-27T03:56:20;11.37;;;10.50;;
7025;SDS011;3554;42.132;24.786;2022-09-27T03:58:47;10.37;;;9.77;;
7025;SDS011;3554;42.132;24.786;2022-09-27T04:01:14;10.27;;;9.57;;
7025;SDS011;3554;42.132;24.786;2022-09-27T04:03:41;10.10;;;9.60;;
7025;SDS011;3554;42.132;24.786;2022-09-27T04:06:08;10.83;;;10.13;;
7025;SDS011;3554;42.132;24.786;2022-09-27T04:08:34;10.53;;;9.93;;
7025;SDS011;3554;42.132;24.786;2022-09-27T04:11:01;10.13;;;9.33;;
7025;SDS011;3554;42.132;24.786;2022-09-27T04:13:30;10.83;;;10.13;;
7025;SDS011;3554;42.132;24.786;2022-09-27T04:15:57;11.07;;;10.00;;
7025;SDS011;3554;42.132;24.786;2022-09-27T04:18:26;14.47;;;13.10;;
7025;SDS011;3554;42.132;24.786;2022-09-27T04:20:53;10.03;;;9.30;;
7025;SDS011;3554;42.132;24.786;2022-09-27T04:23:20;9.47;;;8.73;;
7025;SDS011;3554;42.132;24.786;2022-09-27T04:25:48;11.93;;;8.97;;
7025;SDS011;3554;42.132;24.786;2022-09-27T04:28:15;10.07;;;9.20;;
7025;SDS011;3554;42.132;24.786;2022-09-27T04:30:44;9.07;;;8.20;;
7025;SDS011;3554;42.132;24.786;2022-09-27T04:33:11;9.30;;;8.50;;
7025;SDS011;3554;42.132;24.786;2022-09-27T04:35:38;11.27;;;9.37;;
7025;SDS011;3554;42.132;24.786;2022-09-27T04:38:22;8.80;;;8.23;;
7025;SDS011;3554;42.132;24.786;2022-09-27T04:40:49;9.83;;;8.93;;
7025;SDS011;3554;42.132;24.786;2022-09-27T04:43:16;9.80;;;8.93;;
7025;SDS011;3554;42.132;24.786;2022-09-27T04:45:44;14.67;;;10.00;;
7025;SDS011;3554;42.132;24.786;2022-09-27T04:48:11;10.47;;;9.43;;
7025;SDS011;3554;42.132;24.786;2022-09-27T04:50:38;12.13;;;9.83;;
7025;SDS011;3554;42.132;24.786;2022-09-27T04:53:05;9.73;;;8.77;;
7025;SDS011;3554;42.132;24.786;2022-09-27T04:55:32;16.53;;;9.80;;
7025;SDS011;3554;42.132;24.786;2022-09-27T04:57:59;11.03;;;9.60;;
7025;SDS011;3554;42.132;24.786;2022-09-27T05:00:26;17.73;;;9.70;;
7025;SDS011;3554;42.132;24.786;2022-09-27T05:02:55;11.07;;;10.10;;
7025;SDS011;3554;42.132;24.786;2022-09-27T05:05:22;11.07;;;10.07;;
7025;SDS011;3554;42.132;24.786;2022-09-27T05:07:49;10.13;;;9.30;;
7025;SDS011;3554;42.132;24.786;2022-09-27T05:10:16;10.80;;;9.47;;
7025;SDS011;3554;42.132;24.786;2022-09-27T05:12:42;9.83;;;9.17;;
7025;SDS011;3554;42.132;24.786;2022-09-27T05:15:09;14.37;;;10.23;;
7025;SDS011;3554;42.132;24.786;2022-09-27T05:17:36;11.27;;;10.07;;
7025;SDS011;3554;42.132;24.786;2022-09-27T05:20:05;11.23;;;10.00;;
7025;SDS011;3554;42.132;24.786;2022-09-27T05:22:33;10.80;;;9.70;;
7025;SDS011;3554;42.132;24.786;2022-09-27T05:25:02;13.93;;;10.40;;
7025;SDS011;3554;42.132;24.786;2022-09-27T05:27:29;11.93;;;9.70;;
7025;SDS011;3554;42.132;24.786;2022-09-27T05:29:56;17.40;;;10.03;;
7025;SDS011;3554;42.132;24.786;2022-09-27T05:32:24;10.73;;;9.67;;
7025;SDS011;3554;42.132;24.786;2022-09-27T05:34:51;18.47;;;10.00;;
7025;SDS011;3554;42.132;24.786;2022-09-27T05:37:20;17.43;;;9.83;;
7025;SDS011;3554;42.132;24.786;2022-09-27T05:39:47;16.10;;;10.10;;
7025;SDS011;3554;42.132;24.786;2022-09-27T05:42:14;11.27;;;10.27;;
7025;SDS011;3554;42.132;24.786;2022-09-27T05:44:41;12.47;;;10.03;;
7025;SDS011;3554;42.132;24.786;2022-09-27T05:47:12;12.40;;;10.37;;
7025;SDS011;3554;42.132;24.786;2022-09-27T05:49:39;13.73;;;9.77;;
7025;SDS011;3554;42.132;24.786;2022-09-27T05:52:06;13.77;;;9.83;;
7025;SDS011;3554;42.132;24.786;2022-09-27T05:54:34;11.50;;;9.60;;
7025;SDS011;3554;42.132;24.786;2022-09-27T05:57:02;11.13;;;9.23;;
7025;SDS011;3554;42.132;24.786;2022-09-27T05:59:30;12.17;;;10.57;;
7025;SDS011;3554;42.132;24.786;2022-09-27T06:01:57;12.37;;;9.40;;
7025;SDS011;3554;42.132;24.786;2022-09-27T06:04:24;13.07;;;9.80;;
7025;SDS011;3554;42.132;24.786;2022-09-27T06:06:50;12.57;;;9.47;;
7025;SDS011;3554;42.132;24.786;2022-09-27T06:09:17;13.30;;;10.17;;
7025;SDS011;3554;42.132;24.786;2022-09-27T06:11:45;11.27;;;10.20;;
7025;SDS011;3554;42.132;24.786;2022-09-27T06:14:12;13.77;;;9.83;;
7025;SDS011;3554;42.132;24.786;2022-09-27T06:16:39;15.27;;;10.00;;
7025;SDS011;3554;42.132;24.786;2022-09-27T06:19:06;11.43;;;9.77;;
7025;SDS011;3554;42.132;24.786;2022-09-27T06:21:34;13.40;;;9.70;;
7025;SDS011;3554;42.132;24.786;2022-09-27T06:24:01;14.97;;;9.10;;
7025;SDS011;3554;42.132;24.786;2022-09-27T06:26:28;12.63;;;9.80;;
7025;SDS011;3554;42.132;24.786;2022-09-27T06:28:56;12.50;;;10.10;;
7025;SDS011;3554;42.132;24.786;2022-09-27T06:31:23;10.07;;;9.37;;
7025;SDS011;3554;42.132;24.786;2022-09-27T06:33:50;16.03;;;10.67;;
7025;SDS011;3554;42.132;24.786;2022-09-27T06:36:17;14.43;;;10.50;;
7025;SDS011;3554;42.132;24.786;2022-09-27T06:38:44;12.57;;;10.53;;
7025;SDS011;3554;42.132;24.786;2022-09-27T06:41:13;20.17;;;11.13;;
7025;SDS011;3554;42.132;24.786;2022-09-27T06:43:40;19.77;;;12.13;;
7025;SDS011;3554;42.132;24.786;2022-09-27T06:46:09;12.00;;;10.90;;
7025;SDS011;3554;42.132;24.786;2022-09-27T06:48:36;12.27;;;10.93;;
7025;SDS011;3554;42.132;24.786;2022-09-27T06:51:03;17.80;;;12.20;;
7025;SDS011;3554;42.132;24.786;2022-09-27T06:53:30;20.73;;;12.07;;
7025;SDS011;3554;42.132;24.786;2022-09-27T06:55:57;22.30;;;12.87;;
7025;SDS011;3554;42.132;24.786;2022-09-27T06:58:25;18.37;;;12.07;;
7025;SDS011;3554;42.132;24.786;2022-09-27T07:01:11;18.43;;;12.77;;
7025;SDS011;3554;42.132;24.786;2022-09-27T07:03:38;26.53;;;13.40;;
7025;SDS011;3554;42.132;24.786;2022-09-27T07:06:10;24.60;;;14.20;;
7025;SDS011;3554;42.132;24.786;2022-09-27T07:08:41;33.57;;;17.43;;
7025;SDS011;3554;42.132;24.786;2022-09-27T07:11:08;22.97;;;17.70;;
7025;SDS011;3554;42.132;24.786;2022-09-27T07:13:34;23.80;;;17.33;;
7025;SDS011;3554;42.132;24.786;2022-09-27T07:16:06;18.37;;;15.53;;
7025;SDS011;3554;42.132;24.786;2022-09-27T07:18:35;16.23;;;14.63;;
7025;SDS011;3554;42.132;24.786;2022-09-27T07:21:01;18.83;;;13.43;;
7025;SDS011;3554;42.132;24.786;2022-09-27T07:23:28;23.00;;;14.00;;
7025;SDS011;3554;42.132;24.786;2022-09-27T07:25:55;14.13;;;12.90;;
7025;SDS011;3554;42.132;24.786;2022-09-27T07:28:27;11.97;;;10.73;;
7025;SDS011;3554;42.132;24.786;2022-09-27T07:30:54;11.73;;;10.60;;
7025;SDS011;3554;42.132;24.786;2022-09-27T07:33:21;11.03;;;10.00;;
7025;SDS011;3554;42.132;24.786;2022-09-27T07:35:49;10.47;;;9.67;;
7025;SDS011;3554;42.132;24.786;2022-09-27T07:38:16;16.13;;;8.63;;
7025;SDS011;3554;42.132;24.786;2022-09-27T07:40:44;12.70;;;8.43;;
7025;SDS011;3554;42.132;24.786;2022-09-27T07:43:11;9.73;;;8.80;;
7025;SDS011;3554;42.132;24.786;2022-09-27T07:45:38;8.37;;;7.60;;
7025;SDS011;3554;42.132;24.786;2022-09-27T07:48:05;10.03;;;8.17;;
7025;SDS011;3554;42.132;24.786;2022-09-27T07:50:32;9.50;;;8.70;;
7025;SDS011;3554;42.132;24.786;2022-09-27T07:53:01;12.27;;;9.80;;
7025;SDS011;3554;42.132;24.786;2022-09-27T07:55:29;10.27;;;8.87;;
7025;SDS011;3554;42.132;24.786;2022-09-27T07:58:01;8.27;;;7.33;;
7025;SDS011;3554;42.132;24.786;2022-09-27T08:00:29;6.40;;;6.10;;
7025;SDS011;3554;42.132;24.786;2022-09-27T08:02:55;8.80;;;7.30;;
7025;SDS011;3554;42.132;24.786;2022-09-27T08:05:22;7.30;;;6.77;;
7025;SDS011;3554;42.132;24.786;2022-09-27T08:07:52;6.57;;;6.07;;
7025;SDS011;3554;42.132;24.786;2022-09-27T08:10:22;6.67;;;6.30;;
7025;SDS011;3554;42.132;24.786;2022-09-27T08:12:51;6.80;;;6.10;;
7025;SDS011;3554;42.132;24.786;2022-09-27T08:15:18;6.47;;;5.87;;
7025;SDS011;3554;42.132;24.786;2022-09-27T08:17:45;7.43;;;6.83;;
7025;SDS011;3554;42.132;24.786;2022-09-27T08:20:12;7.10;;;6.27;;
7025;SDS011;3554;42.132;24.786;2022-09-27T08:22:40;6.77;;;6.27;;
7025;SDS011;3554;42.132;24.786;2022-09-27T08:25:07;6.43;;;5.90;;
7025;SDS011;3554;42.132;24.786;2022-09-27T08:27:36;6.10;;;5.70;;
7025;SDS011;3554;42.132;24.786;2022-09-27T08:30:03;5.57;;;5.17;;
7025;SDS011;3554;42.132;24.786;2022-09-27T08:32:30;5.70;;;5.40;;
7025;SDS011;3554;42.132;24.786;2022-09-27T08:34:58;6.90;;;6.00;;
7025;SDS011;3554;42.132;24.786;2022-09-27T08:37:25;6.53;;;5.97;;
7025;SDS011;3554;42.132;24.786;2022-09-27T08:39:52;6.60;;;6.10;;
7025;SDS011;3554;42.132;24.786;2022-09-27T08:42:21;6.37;;;5.60;;
7025;SDS011;3554;42.132;24.786;2022-09-27T08:44:57;7.73;;;5.83;;
7025;SDS011;3554;42.132;24.786;2022-09-27T08:47:30;8.23;;;6.23;;
7025;SDS011;3554;42.132;24.786;2022-09-27T08:50:03;7.03;;;6.33;;
7025;SDS011;3554;42.132;24.786;2022-09-27T08:52:46;8.90;;;6.50;;
7025;SDS011;3554;42.132;24.786;2022-09-27T08:55:19;7.07;;;6.47;;
7025;SDS011;3554;42.132;24.786;2022-09-27T08:57:51;7.77;;;6.27;;
7025;SDS011;3554;42.132;24.786;2022-09-27T09:00:22;6.80;;;6.07;;
7025;SDS011;3554;42.132;24.786;2022-09-27T09:02:50;7.27;;;6.43;;
7025;SDS011;3554;42.132;24.786;2022-09-27T09:05:20;7.10;;;6.77;;
7025;SDS011;3554;42.132;24.786;2022-09-27T09:08:07;6.17;;;5.60;;
7025;SDS011;3554;42.132;24.786;2022-09-27T09:10:50;5.93;;;5.47;;
7025;SDS011;3554;42.132;24.786;2022-09-27T09:14:04;5.93;;;5.43;;
7025;SDS011;3554;42.132;24.786;2022-09-27T09:16:47;5.50;;;5.20;;
7025;SDS011;3554;42.132;24.786;2022-09-27T09:19:29;6.60;;;5.57;;
7025;SDS011;3554;42.132;24.786;2022-09-27T09:22:11;6.27;;;5.77;;
7025;SDS011;3554;42.132;24.786;2022-09-27T09:24:56;6.17;;;5.67;;
7025;SDS011;3554;42.132;24.786;2022-09-27T09:27:34;6.50;;;6.00;;
7025;SDS011;3554;42.132;24.786;2022-09-27T09:30:17;5.77;;;5.30;;
7025;SDS011;3554;42.132;24.786;2022-09-27T09:32:52;5.00;;;4.80;;
7025;SDS011;3554;42.132;24.786;2022-09-27T09:35:31;6.77;;;5.80;;
7025;SDS011;3554;42.132;24.786;2022-09-27T09:38:03;5.50;;;5.10;;
7025;SDS011;3554;42.132;24.786;2022-09-27T09:40:37;5.67;;;5.00;;
7025;SDS011;3554;42.132;24.786;2022-09-27T09:43:09;6.23;;;5.30;;
7025;SDS011;3554;42.132;24.786;2022-09-27T09:45:41;6.33;;;6.03;;
7025;SDS011;3554;42.132;24.786;2022-09-27T09:48:16;6.20;;;5.83;;
7025;SDS011;3554;42.132;24.786;2022-09-27T09:50:50;6.43;;;6.13;;
7025;SDS011;3554;42.132;24.786;2022-09-27T09:53:20;8.40;;;6.07;;
7025;SDS011;3554;42.132;24.786;2022-09-27T09:55:56;5.97;;;5.67;;
7025;SDS011;3554;42.132;24.786;2022-09-27T09:58:27;5.70;;;5.20;;
7025;SDS011;3554;42.132;24.786;2022-09-27T10:01:07;6.57;;;6.17;;
7025;SDS011;3554;42.132;24.786;2022-09-27T10:03:41;6.10;;;5.70;;
7025;SDS011;3554;42.132;24.786;2022-09-27T10:06:08;5.43;;;4.93;;
7025;SDS011;3554;42.132;24.786;2022-09-27T10:08:35;4.67;;;4.47;;
7025;SDS011;3554;42.132;24.786;2022-09-27T10:11:02;5.33;;;5.03;;
7025;SDS011;3554;42.132;24.786;2022-09-27T10:13:29;5.33;;;5.00;;
7025;SDS011;3554;42.132;24.786;2022-09-27T10:16:00;6.03;;;5.60;;
7025;SDS011;3554;42.132;24.786;2022-09-27T10:18:31;5.67;;;5.27;;
7025;SDS011;3554;42.132;24.786;2022-09-27T10:21:00;5.30;;;5.00;;
7025;SDS011;3554;42.132;24.786;2022-09-27T10:23:29;5.10;;;4.73;;
7025;SDS011;3554;42.132;24.786;2022-09-27T10:25:56;5.20;;;4.90;;
7025;SDS011;3554;42.132;24.786;2022-09-27T10:28:30;4.80;;;4.60;;
7025;SDS011;3554;42.132;24.786;2022-09-27T10:31:01;5.37;;;4.97;;
7025;SDS011;3554;42.132;24.786;2022-09-27T10:33:30;6.27;;;5.07;;
7025;SDS011;3554;42.132;24.786;2022-09-27T10:35:58;5.83;;;5.43;;
7025;SDS011;3554;42.132;24.786;2022-09-27T10:38:28;6.30;;;5.77;;
7025;SDS011;3554;42.132;24.786;2022-09-27T10:40:56;4.40;;;4.20;;
7025;SDS011;3554;42.132;24.786;2022-09-27T10:43:40;8.20;;;5.33;;
7025;SDS011;3554;42.132;24.786;2022-09-27T10:46:15;5.90;;;4.47;;
7025;SDS011;3554;42.132;24.786;2022-09-27T10:51:38;4.03;;;3.83;;
7025;SDS011;3554;42.132;24.786;2022-09-27T10:54:15;4.83;;;4.53;;
7025;SDS011;3554;42.132;24.786;2022-09-27T10:56:44;4.57;;;4.23;;
7025;SDS011;3554;42.132;24.786;2022-09-27T10:59:21;4.10;;;3.80;;
7025;SDS011;3554;42.132;24.786;2022-09-27T11:01:49;4.43;;;4.13;;
7025;SDS011;3554;42.132;24.786;2022-09-27T11:04:27;4.30;;;4.00;;
7025;SDS011;3554;42.132;24.786;2022-09-27T11:07:06;3.97;;;3.77;;
7025;SDS011;3554;42.132;24.786;2022-09-27T11:09:45;3.90;;;3.70;;
7025;SDS011;3554;42.132;24.786;2022-09-27T11:12:14;4.13;;;3.93;;
7025;SDS011;3554;42.132;24.786;2022-09-27T11:14:50;4.63;;;3.73;;
7025;SDS011;3554;42.132;24.786;2022-09-27T11:17:21;4.00;;;3.80;;
7025;SDS011;3554;42.132;24.786;2022-09-27T11:19:57;4.17;;;4.00;;
7025;SDS011;3554;42.132;24.786;2022-09-27T11:25:44;4.37;;;3.97;;
7025;SDS011;3554;42.132;24.786;2022-09-27T11:28:19;3.77;;;3.60;;
7025;SDS011;3554;42.132;24.786;2022-09-27T11:30:57;3.80;;;3.60;;
7025;SDS011;3554;42.132;24.786;2022-09-27T11:33:45;4.13;;;3.87;;
7025;SDS011;3554;42.132;24.786;2022-09-27T11:36:27;4.10;;;3.83;;
7025;SDS011;3554;42.132;24.786;2022-09-27T11:39:05;4.83;;;4.43;;
7025;SDS011;3554;42.132;24.786;2022-09-27T11:41:46;4.77;;;4.10;;
7025;SDS011;3554;42.132;24.786;2022-09-27T11:44:30;4.37;;;3.93;;
7025;SDS011;3554;42.132;24.786;2022-09-27T11:47:11;4.37;;;4.00;;
7025;SDS011;3554;42.132;24.786;2022-09-27T11:52:49;4.07;;;3.37;;
7025;SDS011;3554;42.132;24.786;2022-09-27T11:55:32;4.10;;;3.83;;
7025;SDS011;3554;42.132;24.786;2022-09-27T11:58:12;3.93;;;3.57;;
7025;SDS011;3554;42.132;24.786;2022-09-27T12:00:47;5.10;;;3.80;;
7025;SDS011;3554;42.132;24.786;2022-09-27T12:03:42;4.10;;;3.70;;
7025;SDS011;3554;42.132;24.786;2022-09-27T12:06:28;5.70;;;3.23;;
7025;SDS011;3554;42.132;24.786;2022-09-27T12:09:04;4.37;;;3.97;;
7025;SDS011;3554;42.132;24.786;2022-09-27T12:11:37;3.63;;;3.43;;
7025;SDS011;3554;42.132;24.786;2022-09-27T12:14:10;4.03;;;3.73;;
7025;SDS011;3554;42.132;24.786;2022-09-27T12:16:43;4.20;;;3.90;;
7025;SDS011;3554;42.132;24.786;2022-09-27T12:19:14;3.80;;;3.57;;
7025;SDS011;3554;42.132;24.786;2022-09-27T12:21:45;3.97;;;3.67;;
7025;SDS011;3554;42.132;24.786;2022-09-27T12:24:14;3.90;;;3.70;;
7025;SDS011;3554;42.132;24.786;2022-09-27T12:26:47;4.40;;;3.77;;
7025;SDS011;3554;42.132;24.786;2022-09-27T12:29:17;4.17;;;3.77;;
7025;SDS011;3554;42.132;24.786;2022-09-27T12:31:50;3.77;;;3.57;;
7025;SDS011;3554;42.132;24.786;2022-09-27T12:34:24;4.87;;;4.50;;
7025;SDS011;3554;42.132;24.786;2022-09-27T12:36:57;3.93;;;3.47;;
7025;SDS011;3554;42.132;24.786;2022-09-27T12:39:32;4.27;;;3.80;;
7025;SDS011;3554;42.132;24.786;2022-09-27T12:42:11;4.93;;;3.50;;
7025;SDS011;3554;42.132;24.786;2022-09-27T12:44:42;4.10;;;3.90;;
7025;SDS011;3554;42.132;24.786;2022-09-27T12:47:10;4.67;;;3.20;;
7025;SDS011;3554;42.132;24.786;2022-09-27T12:49:48;3.73;;;3.53;;
7025;SDS011;3554;42.132;24.786;2022-09-27T12:52:23;4.43;;;4.03;;
7025;SDS011;3554;42.132;24.786;2022-09-27T12:55:00;6.27;;;3.67;;
7025;SDS011;3554;42.132;24.786;2022-09-27T12:57:44;3.87;;;3.50;;
7025;SDS011;3554;42.132;24.786;2022-09-27T13:00:17;3.90;;;3.60;;
7025;SDS011;3554;42.132;24.786;2022-09-27T13:02:51;3.83;;;3.60;;
7025;SDS011;3554;42.132;24.786;2022-09-27T13:05:41;3.80;;;3.60;;
7025;SDS011;3554;42.132;24.786;2022-09-27T13:08:34;4.27;;;3.97;;
7025;SDS011;3554;42.132;24.786;2022-09-27T13:11:19;5.40;;;5.00;;
7025;SDS011;3554;42.132;24.786;2022-09-27T13:13:54;4.73;;;3.90;;
7025;SDS011;3554;42.132;24.786;2022-09-27T13:16:23;4.10;;;3.80;;
7025;SDS011;3554;42.132;24.786;2022-09-27T13:18:54;4.23;;;3.83;;
7025;SDS011;3554;42.132;24.786;2022-09-27T13:24:40;6.23;;;3.30;;
7025;SDS011;3554;42.132;24.786;2022-09-27T13:39:13;4.30;;;3.90;;
7025;SDS011;3554;42.132;24.786;2022-09-27T13:41:53;4.00;;;3.70;;
7025;SDS011;3554;42.132;24.786;2022-09-27T13:44:50;3.70;;;3.50;;
7025;SDS011;3554;42.132;24.786;2022-09-27T13:47:38;4.17;;;3.97;;
7025;SDS011;3554;42.132;24.786;2022-09-27T13:50:16;4.30;;;3.90;;
7025;SDS011;3554;42.132;24.786;2022-09-27T13:52:54;4.23;;;3.90;;
7025;SDS011;3554;42.132;24.786;2022-09-27T13:55:42;6.77;;;4.00;;
7025;SDS011;3554;42.132;24.786;2022-09-27T13:58:14;7.80;;;4.00;;
7025;SDS011;3554;42.132;24.786;2022-09-27T14:01:04;3.93;;;3.63;;
7025;SDS011;3554;42.132;24.786;2022-09-27T14:03:45;9.97;;;4.07;;
7025;SDS011;3554;42.132;24.786;2022-09-27T14:06:20;5.57;;;3.67;;
7025;SDS011;3554;42.132;24.786;2022-09-27T14:08:50;6.07;;;3.27;;
7025;SDS011;3554;42.132;24.786;2022-09-27T14:11:21;11.03;;;3.97;;
7025;SDS011;3554;42.132;24.786;2022-09-27T14:13:51;5.73;;;3.87;;
7025;SDS011;3554;42.132;24.786;2022-09-27T14:16:18;5.97;;;4.00;;
7025;SDS011;3554;42.132;24.786;2022-09-27T14:18:47;7.00;;;4.37;;
7025;SDS011;3554;42.132;24.786;2022-09-27T14:21:21;5.10;;;4.60;;
7025;SDS011;3554;42.132;24.786;2022-09-27T14:26:49;9.17;;;4.60;;
7025;SDS011;3554;42.132;24.786;2022-09-27T14:29:30;4.23;;;3.93;;
7025;SDS011;3554;42.132;24.786;2022-09-27T14:32:04;4.83;;;3.77;;
7025;SDS011;3554;42.132;24.786;2022-09-27T14:34:35;5.37;;;4.87;;
7025;SDS011;3554;42.132;24.786;2022-09-27T14:37:04;4.73;;;4.03;;
7025;SDS011;3554;42.132;24.786;2022-09-27T14:39:56;17.47;;;4.90;;
7025;SDS011;3554;42.132;24.786;2022-09-27T14:42:26;4.77;;;4.37;;
7025;SDS011;3554;42.132;24.786;2022-09-27T14:44:58;4.03;;;3.83;;
7025;SDS011;3554;42.132;24.786;2022-09-27T14:47:28;4.27;;;3.97;;
7025;SDS011;3554;42.132;24.786;2022-09-27T14:49:56;7.13;;;4.10;;
7025;SDS011;3554;42.132;24.786;2022-09-27T14:52:26;6.97;;;4.30;;
7025;SDS011;3554;42.132;24.786;2022-09-27T14:54:57;6.40;;;4.57;;
7025;SDS011;3554;42.132;24.786;2022-09-27T14:57:33;6.57;;;6.17;;
7025;SDS011;3554;42.132;24.786;2022-09-27T15:00:14;8.30;;;5.30;;
7025;SDS011;3554;42.132;24.786;2022-09-27T15:02:44;6.17;;;5.33;;
7025;SDS011;3554;42.132;24.786;2022-09-27T15:05:12;7.63;;;4.87;;
7025;SDS011;3554;42.132;24.786;2022-09-27T15:07:43;9.47;;;4.80;;
7025;SDS011;3554;42.132;24.786;2022-09-27T15:10:12;6.20;;;4.73;;
7025;SDS011;3554;42.132;24.786;2022-09-27T15:12:42;5.30;;;4.90;;
7025;SDS011;3554;42.132;24.786;2022-09-27T15:15:12;11.67;;;5.43;;
7025;SDS011;3554;42.132;24.786;2022-09-27T15:17:42;6.43;;;5.30;;
7025;SDS011;3554;42.132;24.786;2022-09-27T15:22:57;5.90;;;5.40;;
7025;SDS011;3554;42.132;24.786;2022-09-27T15:25:26;6.27;;;5.23;;
7025;SDS011;3554;42.132;24.786;2022-09-27T15:27:59;6.13;;;5.63;;
7025;SDS011;3554;42.132;24.786;2022-09-27T15:30:48;7.63;;;5.67;;
7025;SDS011;3554;42.132;24.786;2022-09-27T15:33:19;6.77;;;5.87;;
7025;SDS011;3554;42.132;24.786;2022-09-27T15:35:49;6.47;;;5.90;;
7025;SDS011;3554;42.132;24.786;2022-09-27T15:38:28;6.13;;;5.63;;
7025;SDS011;3554;42.132;24.786;2022-09-27T15:41:04;7.20;;;5.90;;
7025;SDS011;3554;42.132;24.786;2022-09-27T15:43:39;6.67;;;6.03;;
7025;SDS011;3554;42.132;24.786;2022-09-27T15:46:32;7.90;;;6.13;;
7025;SDS011;3554;42.132;24.786;2022-09-27T15:49:18;7.73;;;6.40;;
7025;SDS011;3554;42.132;24.786;2022-09-27T15:51:48;7.50;;;6.00;;
7025;SDS011;3554;42.132;24.786;2022-09-27T15:54:20;11.60;;;7.20;;
7025;SDS011;3554;42.132;24.786;2022-09-27T15:56:48;13.13;;;7.30;;